HSNN

Nyala Airport

Nyala, Sudan
METAR HSNN 172000Z 26006KT CAVOK 23/21 Q1013
Observed Flight Rules
Aug-17 @ 20:00 UTC (3 hours ago) Visual Flight Rules
Wind Visibility Clouds
260° at 6 knots 10,000+ meters
  • Clear skies
Temperatures Readings
Current 23°C / 73°F
Dewpoint 21°C / 70°F
Humidity 89%
Altimeter 29.91" Hg
Pressure 1013 hPa
Elevation 658
METAR HSNN 172000Z 26006KT CAVOK 23/21 Q1013
Observed Flight Rules
Aug-17 @ 20:00 UTC
(3 hours ago)
VFR
Wind Visibility
260° at 6 knots 10,000+ meters
Clouds
  • Clear skies
Temperature Dewpoint
23°C / 73°F 21°C / 70°F
Humidity Altimeter Pressure
89% 29.91" Hg 1013 hPa